Time;durP1;ratioP1;P1;durP2;ratioP2;P2;SDS_P1;SDS_P2;PMS_P1;PMS_P2;Temp;Humidity;BMP_temperature;BMP_pressure;BME280_temperature;BME280_humidity;BME280_pressure;Samples;Min_cycle;Max_cycle;Signal;HPM_P1;HPM_P2
2022/08/28 00:01:31;;;;;;;37.00;23.20;;;18.70;99.90;;;;;;10139248;29;20224;-86
2022/08/28 00:06:34;;;;;;;30.80;22.02;;;18.70;99.90;;;;;;10140808;29;20733;-87
2022/08/28 00:11:37;;;;;;;28.50;22.23;;;18.80;99.90;;;;;;10140731;29;20259;-87
2022/08/28 00:16:40;;;;;;;28.38;22.42;;;18.80;99.90;;;;;;10139379;29;20212;-87
2022/08/28 00:21:44;;;;;;;30.88;21.67;;;18.90;99.90;;;;;;10138928;29;20236;-87
2022/08/28 00:32:07;;;;;;;29.23;22.83;;;18.90;99.90;;;;;;10138298;29;20753;-87
2022/08/28 00:37:10;;;;;;;31.83;22.65;;;18.90;99.90;;;;;;10138020;29;20722;-87
2022/08/28 00:42:13;;;;;;;29.67;23.10;;;18.80;99.90;;;;;;10136738;29;20224;-87
2022/08/28 00:47:16;;;;;;;30.95;22.92;;;18.70;99.90;;;;;;10137789;29;20196;-87
2022/08/28 00:52:19;;;;;;;32.45;23.45;;;18.70;99.90;;;;;;10139290;29;20280;-86
2022/08/28 00:57:27;;;;;;;27.38;22.02;;;18.60;99.90;;;;;;10138538;29;20603;-87
2022/08/28 01:02:30;;;;;;;39.38;24.70;;;18.60;99.90;;;;;;10138638;29;20229;-86
2022/08/28 01:07:33;;;;;;;31.95;23.08;;;18.60;99.90;;;;;;10136916;29;20252;-86
2022/08/28 01:12:36;;;;;;;30.55;23.48;;;18.60;99.90;;;;;;10137889;29;20681;-86
2022/08/28 01:17:48;;;;;;;31.95;24.08;;;18.50;99.90;;;;;;10137789;29;20208;-87
2022/08/28 01:23:16;;;;;;;26.60;22.88;;;18.50;99.90;;;;;;10136468;29;20284;-86
2022/08/28 01:28:18;;;;;;;27.95;22.77;;;18.50;99.90;;;;;;10137176;29;20200;-87
2022/08/28 01:33:22;;;;;;;27.40;23.23;;;18.50;99.90;;;;;;10136100;29;20674;-87
2022/08/28 01:38:29;;;;;;;33.90;21.15;;;18.50;99.90;;;;;;10137398;29;20232;-87
2022/08/28 01:43:31;;;;;;;31.48;22.33;;;18.40;99.90;;;;;;10136680;29;20216;-87
2022/08/28 01:48:40;;;;;;;33.50;23.33;;;18.30;99.90;;;;;;10135852;29;20208;-87
2022/08/28 01:53:43;;;;;;;33.30;22.73;;;18.20;99.90;;;;;;10134999;29;20240;-87
2022/08/28 01:58:48;;;;;;;29.20;22.40;;;18.20;99.90;;;;;;10134946;29;20220;-87
2022/08/28 02:03:51;;;;;;;34.33;22.73;;;18.20;99.90;;;;;;10135127;29;20228;-87
2022/08/28 02:08:54;;;;;;;25.83;20.83;;;18.10;99.90;;;;;;10134189;29;20263;-87
2022/08/28 02:13:57;;;;;;;35.13;22.80;;;18.00;99.90;;;;;;10135680;29;20204;-87
2022/08/28 02:19:01;;;;;;;28.83;22.33;;;18.00;99.90;;;;;;10134383;29;20208;-87
2022/08/28 02:24:03;;;;;;;34.40;23.08;;;17.90;99.90;;;;;;10135764;29;20272;-86
2022/08/28 02:29:06;;;;;;;31.45;23.95;;;17.90;99.90;;;;;;10134171;29;20264;-87
2022/08/28 02:34:10;;;;;;;30.98;22.92;;;17.80;99.90;;;;;;10133924;29;20252;-87
2022/08/28 02:39:12;;;;;;;29.48;24.58;;;17.80;99.90;;;;;;10133618;29;20717;-87
2022/08/28 02:44:16;;;;;;;29.33;23.60;;;17.80;99.90;;;;;;10133650;29;20232;-87
2022/08/28 02:49:18;;;;;;;33.85;24.20;;;17.80;99.90;;;;;;10134978;29;20260;-87
2022/08/28 02:54:21;;;;;;;30.10;24.85;;;17.70;99.90;;;;;;10133559;29;20200;-87
2022/08/28 02:59:24;;;;;;;33.67;23.80;;;17.60;99.90;;;;;;10134685;29;20208;-87
2022/08/28 03:04:27;;;;;;;32.28;25.00;;;17.60;99.90;;;;;;10135218;29;20236;-87
2022/08/28 03:09:29;;;;;;;33.97;23.88;;;17.60;99.90;;;;;;10141209;29;20208;-87
2022/08/28 03:14:32;;;;;;;28.42;25.05;;;17.60;99.90;;;;;;10142002;29;20212;-87
2022/08/28 03:19:34;;;;;;;33.60;25.52;;;17.50;99.90;;;;;;10140943;29;20216;-87
2022/08/28 03:24:37;;;;;;;22.90;19.70;;;17.50;99.90;;;;;;10142023;29;20220;-87
2022/08/28 03:29:39;;;;;;;25.35;19.38;;;19.20;99.90;;;;;;10141241;29;20236;-87
2022/08/28 03:34:42;;;;;;;28.67;21.48;;;18.90;99.90;;;;;;10140944;29;20205;-87
2022/08/28 03:39:44;;;;;;;25.00;20.08;;;18.30;99.90;;;;;;10141092;29;20283;-87
2022/08/28 03:44:48;;;;;;;23.42;20.80;;;18.60;99.90;;;;;;10140412;29;20595;-87
2022/08/28 03:49:55;;;;;;;26.70;21.23;;;18.50;99.90;;;;;;10141539;29;20662;-87
2022/08/28 03:54:58;;;;;;;31.35;21.13;;;18.00;99.90;;;;;;10139648;29;20267;-87
2022/08/28 04:00:01;;;;;;;29.55;21.15;;;17.90;99.90;;;;;;10139424;29;20260;-87
2022/08/28 04:05:13;;;;;;;30.45;23.10;;;17.70;99.90;;;;;;10150477;29;20726;-87
2022/08/28 04:10:15;;;;;;;29.90;23.08;;;17.60;99.90;;;;;;10139334;29;20193;-87
2022/08/28 04:15:20;;;;;;;30.50;23.90;;;17.50;99.90;;;;;;10139083;29;20619;-87
2022/08/28 04:20:22;;;;;;;34.65;25.75;;;17.50;99.90;;;;;;10123630;29;20623;-87
2022/08/28 04:25:25;;;;;;;38.75;27.80;;;17.50;99.90;;;;;;10137977;29;20710;-87
2022/08/28 04:30:28;;;;;;;39.80;26.92;;;17.50;99.90;;;;;;10138098;29;20216;-87
2022/08/28 04:35:30;;;;;;;40.00;27.17;;;17.60;99.90;;;;;;10138164;29;20260;-86
2022/08/28 04:40:33;;;;;;;37.35;26.75;;;17.60;99.90;;;;;;10139441;29;20240;-87
2022/08/28 04:45:40;;;;;;;50.80;27.90;;;17.70;99.90;;;;;;10137997;29;20204;-86
2022/08/28 04:50:45;;;;;;;39.67;28.88;;;17.70;99.90;;;;;;10137523;29;20201;-87
2022/08/28 04:55:49;;;;;;;39.45;28.52;;;17.70;99.90;;;;;;10138558;29;20252;-87
2022/08/28 05:00:56;;;;;;;40.53;29.25;;;17.80;99.90;;;;;;10136701;29;20666;-87
2022/08/28 05:05:59;;;;;;;44.53;31.52;;;17.80;99.90;;;;;;10137106;29;20201;-86
2022/08/28 05:11:14;;;;;;;40.17;29.02;;;17.70;99.90;;;;;;10138408;29;20204;-87
2022/08/28 05:16:44;;;;;;;37.17;27.90;;;17.90;99.90;;;;;;10138031;29;20571;-86
2022/08/28 05:21:47;;;;;;;41.75;29.85;;;18.00;99.90;;;;;;10136728;29;20288;-87
2022/08/28 05:26:49;;;;;;;42.28;30.70;;;18.10;99.90;;;;;;10135566;29;20208;-86
2022/08/28 05:31:52;;;;;;;43.63;31.67;;;18.10;99.90;;;;;;10136321;29;20208;-87
2022/08/28 05:36:55;;;;;;;44.40;30.10;;;17.90;99.90;;;;;;10137086;29;20224;-87
2022/08/28 05:41:57;;;;;;;40.58;29.10;;;18.10;99.90;;;;;;10135786;29;20231;-87
2022/08/28 05:47:01;;;;;;;45.97;30.67;;;18.40;99.90;;;;;;10135196;29;20225;-87
2022/08/28 05:52:03;;;;;;;40.60;28.73;;;18.30;99.90;;;;;;10136677;29;20204;-87
2022/08/28 05:57:06;;;;;;;41.60;30.08;;;18.60;99.90;;;;;;10135204;29;20695;-87
2022/08/28 06:02:08;;;;;;;44.55;32.10;;;18.90;99.90;;;;;;10134779;29;20256;-86
2022/08/28 06:07:12;;;;;;;32.13;22.38;;;18.70;99.90;;;;;;10135283;29;20196;-87
2022/08/28 06:12:15;;;;;;;36.38;26.23;;;19.40;99.90;;;;;;10134999;29;20670;-87
2022/08/28 06:17:17;;;;;;;42.83;28.77;;;20.00;99.90;;;;;;10134445;29;20276;-87
2022/08/28 06:22:25;;;;;;;28.20;21.13;;;19.50;99.90;;;;;;10135530;29;20263;-87
2022/08/28 06:27:27;;;;;;;45.72;29.48;;;19.50;99.90;;;;;;10135705;29;20196;-87
2022/08/28 06:32:30;;;;;;;38.28;27.67;;;19.50;99.90;;;;;;10135253;29;20200;-86
2022/08/28 06:37:33;;;;;;;38.38;26.95;;;20.60;99.90;;;;;;10133890;29;20797;-86
2022/08/28 06:42:35;;;;;;;39.22;27.52;;;20.10;99.90;;;;;;10133973;29;20287;-86
2022/08/28 06:47:38;;;;;;;24.63;19.95;;;20.20;99.90;;;;;;10134238;29;20206;-87
2022/08/28 06:52:40;;;;;;;39.42;25.88;;;20.70;99.90;;;;;;10134208;29;20264;-86
2022/08/28 06:57:43;;;;;;;38.42;27.45;;;21.40;99.90;;;;;;10133990;29;20212;-86
2022/08/28 07:02:45;;;;;;;43.17;27.23;;;20.00;99.90;;;;;;10134117;29;20639;-86
2022/08/28 07:07:48;;;;;;;21.00;18.73;;;20.20;99.90;;;;;;10135357;29;20196;-86
2022/08/28 07:12:50;;;;;;;32.22;23.95;;;20.80;99.90;;;;;;10135377;29;20200;-87
2022/08/28 07:17:53;;;;;;;32.70;25.10;;;20.50;99.90;;;;;;10135267;29;20212;-87
2022/08/28 07:22:55;;;;;;;35.45;25.95;;;20.40;99.90;;;;;;10133378;29;20599;-86
2022/08/28 07:28:01;;;;;;;34.65;23.98;;;20.50;99.90;;;;;;10134546;29;20205;-86
2022/08/28 07:33:03;;;;;;;32.30;24.38;;;20.60;99.90;;;;;;10133557;29;20229;-86
2022/08/28 07:38:05;;;;;;;35.67;23.75;;;20.80;99.90;;;;;;10134094;29;20596;-86
2022/08/28 07:48:29;;;;;;;31.38;24.55;;;20.70;99.90;;;;;;10132509;29;20208;-86
2022/08/28 07:53:34;;;;;;;31.42;24.42;;;21.10;99.90;;;;;;10140442;29;20674;-86
2022/08/28 07:58:38;;;;;;;28.88;22.52;;;21.30;99.90;;;;;;10124219;29;20754;-86
2022/08/28 08:03:40;;;;;;;31.95;23.60;;;21.60;99.90;;;;;;10139274;29;20236;-86
2022/08/28 08:08:44;;;;;;;26.98;20.38;;;21.70;99.90;;;;;;10140603;29;20621;-86
2022/08/28 08:13:47;;;;;;;25.80;20.05;;;21.70;99.90;;;;;;10139013;29;20234;-86
2022/08/28 08:18:52;;;;;;;27.90;21.35;;;21.70;99.90;;;;;;10123930;29;20575;-86
2022/08/28 08:23:55;;;;;;;32.58;20.17;;;21.60;99.90;;;;;;10138818;29;20634;-86
2022/08/28 08:28:58;;;;;;;24.95;19.15;;;21.70;99.90;;;;;;10123468;29;20208;-86
2022/08/28 08:34:02;;;;;;;25.70;18.10;;;;;;;;;;10139124;29;20196;-86
2022/08/28 08:39:06;;;;;;;24.40;18.63;;;22.50;99.90;;;;;;10138407;29;20336;-87
2022/08/28 08:44:16;;;;;;;26.63;18.70;;;22.10;99.90;;;;;;10138524;29;20224;-86
2022/08/28 08:49:24;;;;;;;20.63;17.00;;;22.70;99.90;;;;;;10138128;29;20205;-86
2022/08/28 08:54:27;;;;;;;19.85;17.48;;;22.70;99.90;;;;;;10138025;29;20744;-86
2022/08/28 08:59:33;;;;;;;24.33;17.40;;;23.10;99.90;;;;;;10138052;29;20237;-86
2022/08/28 09:04:45;;;;;;;20.52;17.70;;;23.20;99.90;;;;;;10136406;29;20714;-86
2022/08/28 09:09:51;;;;;;;52.05;18.17;;;23.00;99.90;;;;;;10138782;29;20197;-86
2022/08/28 09:15:08;;;;;;;31.15;17.95;;;22.80;99.90;;;;;;10137281;29;20758;-86
2022/08/28 09:20:16;;;;;;;19.67;16.08;;;22.80;99.90;;;;;;10137182;29;20204;-87
2022/08/28 09:25:43;;;;;;;19.95;15.38;;;22.90;99.90;;;;;;10136929;29;20343;-86
2022/08/28 09:30:53;;;;;;;24.23;15.93;;;23.20;99.90;;;;;;10137695;29;20634;-86
2022/08/28 09:35:56;;;;;;;29.55;16.58;;;23.20;99.90;;;;;;10136412;29;20204;-86
2022/08/28 09:46:31;;;;;;;19.10;15.85;;;23.30;99.90;;;;;;10136622;29;20228;-86
2022/08/28 09:51:37;;;;;;;17.88;15.82;;;23.50;99.90;;;;;;10136780;29;20255;-86
2022/08/28 09:56:41;;;;;;;18.38;15.90;;;23.70;99.90;;;;;;10136711;29;20256;-86
2022/08/28 10:01:59;;;;;;;18.45;16.30;;;23.40;99.90;;;;;;10134533;29;20633;-86
2022/08/28 10:07:11;;;;;;;24.08;16.83;;;23.40;99.90;;;;;;10136318;29;20611;-86
2022/08/28 10:12:25;;;;;;;19.42;15.73;;;23.20;99.90;;;;;;10134937;29;20209;-86
2022/08/28 10:17:28;;;;;;;23.60;17.02;;;23.20;99.90;;;;;;10134684;29;20268;-86
2022/08/28 10:22:48;;;;;;;20.48;17.20;;;23.20;99.90;;;;;;10134415;29;20285;-86
2022/08/28 10:28:12;;;;;;;21.08;17.10;;;23.30;99.90;;;;;;10133869;29;20216;-86
2022/08/28 10:33:41;;;;;;;18.65;16.08;;;23.50;99.90;;;;;;10135603;29;20263;-86
2022/08/28 10:38:50;;;;;;;23.33;16.42;;;23.90;99.90;;;;;;10132328;29;20240;-86
2022/08/28 10:44:00;;;;;;;24.10;16.70;;;23.90;99.90;;;;;;10135150;29;20249;-86
2022/08/28 10:49:09;;;;;;;22.58;16.23;;;23.70;99.90;;;;;;10134011;29;20204;-86
2022/08/28 10:54:21;;;;;;;22.08;17.60;;;23.70;99.90;;;;;;10133815;29;20200;-86
2022/08/28 10:59:28;;;;;;;26.50;17.60;;;23.70;99.90;;;;;;10133787;29;20618;-86
2022/08/28 11:04:31;;;;;;;23.63;16.80;;;23.70;99.90;;;;;;10133503;29;20264;-86
2022/08/28 11:09:38;;;;;;;20.48;16.48;;;23.70;99.90;;;;;;10133867;29;20197;-86
2022/08/28 11:14:43;;;;;;;19.90;16.83;;;23.80;99.90;;;;;;10134201;29;20256;-86
2022/08/28 11:20:06;;;;;;;24.85;17.23;;;23.80;99.90;;;;;;10134321;29;20270;-86
2022/08/28 11:25:17;;;;;;;23.20;16.38;;;24.00;99.90;;;;;;10121823;29;20268;-86
2022/08/28 11:30:32;;;;;;;21.25;17.15;;;24.00;99.90;;;;;;10143141;29;20674;-86
2022/08/28 11:35:39;;;;;;;21.70;17.40;;;24.10;99.90;;;;;;10142018;29;20212;-86
2022/08/28 11:40:51;;;;;;;18.35;15.73;;;24.00;99.90;;;;;;10141546;29;20236;-86
2022/08/28 11:45:58;;;;;;;26.05;17.40;;;24.00;99.90;;;;;;10140959;29;20279;-86
2022/08/28 11:51:20;;;;;;;19.52;16.58;;;23.90;99.90;;;;;;10140429;29;20204;-86
2022/08/28 11:56:41;;;;;;;20.73;17.00;;;23.60;99.90;;;;;;10142339;29;20236;-86
2022/08/28 12:01:44;;;;;;;21.92;17.40;;;23.70;99.90;;;;;;10141965;29;20248;-87
2022/08/28 12:06:51;;;;;;;17.50;15.38;;;23.80;99.90;;;;;;10141348;29;20224;-87
2022/08/28 12:12:44;;;;;;;23.25;16.92;;;23.90;99.90;;;;;;10140310;29;20252;-86
2022/08/28 12:17:49;;;;;;;25.30;16.13;;;23.70;99.90;;;;;;10005285;29;20218;-86
2022/08/28 12:22:55;;;;;;;22.90;16.77;;;23.70;99.90;;;;;;10021241;29;20731;-86
2022/08/28 12:28:13;;;;;;;21.25;14.95;;;23.60;99.90;;;;;;10020725;29;20239;-87
2022/08/28 12:33:20;;;;;;;22.05;16.70;;;23.70;99.90;;;;;;10021269;29;20255;-87
2022/08/28 12:38:24;;;;;;;21.63;16.77;;;23.50;99.90;;;;;;10020300;29;20238;-86
2022/08/28 12:43:34;;;;;;;18.70;15.77;;;23.40;99.90;;;;;;10007055;29;20234;-86
2022/08/28 12:48:52;;;;;;;20.20;17.33;;;23.30;99.90;;;;;;10121075;29;20577;-86
2022/08/28 12:53:58;;;;;;;18.17;14.27;;;23.40;99.90;;;;;;10140313;29;20200;-86
2022/08/28 12:59:24;;;;;;;18.42;13.98;;;23.50;99.90;;;;;;10144009;29;20264;-86
2022/08/28 13:04:36;;;;;;;20.08;15.23;;;23.40;99.90;;;;;;10151408;29;20213;-86
2022/08/28 13:09:48;;;;;;;17.88;14.20;;;23.40;99.90;;;;;;10149149;29;20201;-86
2022/08/28 13:14:51;;;;;;;17.77;11.68;;;23.60;99.90;;;;;;10149993;29;20272;-86
2022/08/28 13:20:28;;;;;;;16.48;11.18;;;23.70;99.90;;;;;;10145022;29;20204;-87
2022/08/28 13:25:34;;;;;;;13.45;10.38;;;23.50;99.90;;;;;;10138542;29;20357;-86
2022/08/28 13:30:36;;;;;;;11.77;9.93;;;23.50;99.90;;;;;;10136583;29;20208;-86
2022/08/28 13:35:40;;;;;;;11.93;9.40;;;23.50;99.90;;;;;;10136528;29;20632;-86
2022/08/28 13:40:48;;;;;;;15.07;13.48;;;23.50;99.90;;;;;;10136735;29;20274;-86
2022/08/28 13:46:01;;;;;;;18.08;15.85;;;23.70;99.90;;;;;;10135162;29;20255;-88
2022/08/28 14:07:32;;;;;;;11.95;9.65;;;23.80;99.90;;;;;;9839587;28;10000164;-89
2022/08/28 14:12:35;;;;;;;18.00;10.32;;;23.80;99.90;;;;;;10152353;29;20212;-90
2022/08/28 14:17:38;;;;;;;12.95;10.98;;;23.70;99.90;;;;;;10180931;29;20907;-89
2022/08/28 14:22:41;;;;;;;11.98;10.40;;;23.70;99.90;;;;;;10151690;29;20290;-91
2022/08/28 14:27:44;;;;;;;11.63;9.82;;;23.90;99.90;;;;;;10144908;29;20270;-89
2022/08/28 14:32:46;;;;;;;13.57;9.63;;;23.80;99.90;;;;;;10190584;29;20235;-89
2022/08/28 14:37:49;;;;;;;14.30;9.57;;;23.60;99.90;;;;;;10152159;29;20231;-88
2022/08/28 14:42:51;;;;;;;12.80;9.90;;;23.20;99.90;;;;;;10160207;29;20678;-89
2022/08/28 14:47:54;;;;;;;9.38;7.72;;;23.50;99.90;;;;;;10154806;29;20326;-89
2022/08/28 14:52:57;;;;;;;7.47;6.72;;;23.40;99.90;;;;;;10151856;29;20557;-88
2022/08/28 14:57:59;;;;;;;9.73;8.32;;;23.30;99.90;;;;;;10163160;29;20269;-89
2022/08/28 15:03:01;;;;;;;14.48;8.07;;;23.50;99.90;;;;;;10130375;29;20240;-89
2022/08/28 15:08:13;;;;;;;6.70;5.63;;;23.40;99.90;;;;;;10164105;29;20231;-89
2022/08/28 15:13:15;;;;;;;8.55;5.75;;;23.20;99.90;;;;;;10159261;29;20302;-89
2022/08/28 15:18:18;;;;;;;8.18;7.38;;;23.10;99.90;;;;;;10200370;29;20676;-89
2022/08/28 15:23:21;;;;;;;12.05;8.52;;;23.40;99.90;;;;;;10190393;29;20258;-88
2022/08/28 15:28:23;;;;;;;11.95;6.93;;;23.40;99.90;;;;;;10135139;29;20228;-88
2022/08/28 15:33:26;;;;;;;6.95;6.30;;;22.90;99.90;;;;;;10129817;29;20217;-88
2022/08/28 15:41:22;;;;;;;7.63;6.10;;;22.90;99.90;;;;;;9826949;29;10000350;-88
2022/08/28 15:44:00;;;;;;;7.05;5.90;;;23.30;99.90;;;;;;10187853;29;20286;-88
2022/08/28 15:49:06;;;;;;;8.20;6.10;;;22.80;99.90;;;;;;10177706;29;20299;-88
2022/08/28 15:54:10;;;;;;;6.88;6.18;;;23.00;99.90;;;;;;10166928;29;20260;-89
2022/08/28 15:59:13;;;;;;;6.25;5.53;;;23.30;99.90;;;;;;10160828;29;20234;-88
2022/08/28 16:04:16;;;;;;;8.05;6.38;;;22.80;99.90;;;;;;10188903;29;20263;-89
2022/08/28 16:09:22;;;;;;;7.93;6.00;;;22.70;99.90;;;;;;10174063;29;20239;-89
2022/08/28 16:14:24;;;;;;;6.50;5.90;;;22.40;99.90;;;;;;10174052;29;20243;-89
2022/08/28 16:19:27;;;;;;;7.28;6.50;;;22.70;99.90;;;;;;10170387;29;20239;-88
2022/08/28 16:24:29;;;;;;;7.03;5.88;;;22.60;99.90;;;;;;10169663;29;20511;-88
2022/08/28 16:29:32;;;;;;;7.88;6.30;;;22.20;99.90;;;;;;10164406;29;20281;-89
2022/08/28 16:34:34;;;;;;;7.63;6.72;;;21.90;99.90;;;;;;10191324;29;20681;-89
2022/08/28 16:39:38;;;;;;;7.03;6.32;;;22.30;99.90;;;;;;10155387;29;20243;-88
2022/08/28 16:44:40;;;;;;;8.40;6.68;;;21.80;99.90;;;;;;10188418;29;20262;-88
2022/08/28 16:49:43;;;;;;;10.30;6.00;;;21.90;99.90;;;;;;10190066;29;20309;-88
2022/08/28 16:54:46;;;;;;;8.23;7.38;;;21.40;99.90;;;;;;10172211;29;20295;-88
2022/08/28 16:59:50;;;;;;;7.63;6.53;;;21.70;99.90;;;;;;10172637;29;20271;-88
2022/08/28 17:04:59;;;;;;;7.00;6.30;;;21.30;99.90;;;;;;10172834;29;20830;-89
2022/08/28 17:10:03;;;;;;;7.22;5.55;;;21.20;99.90;;;;;;10191475;29;20238;-88
2022/08/28 17:15:07;;;;;;;6.18;5.63;;;21.10;99.90;;;;;;10190340;29;20297;-89
2022/08/28 17:22:30;;;;;;;6.25;5.65;;;21.40;99.90;;;;;;10151504;29;20329;-88
2022/08/28 17:25:35;;;;;;;6.53;5.93;;;21.80;99.90;;;;;;10158484;29;20255;-89
2022/08/28 17:30:38;;;;;;;5.45;5.00;;;21.50;99.90;;;;;;10190326;29;20246;-89
2022/08/28 17:35:40;;;;;;;6.22;5.30;;;21.30;99.90;;;;;;10193793;29;20211;-89
2022/08/28 17:40:43;;;;;;;5.63;4.25;;;21.50;99.90;;;;;;10186598;29;20292;-89
2022/08/28 17:45:46;;;;;;;3.50;3.20;;;21.50;99.90;;;;;;10151379;29;20296;-89
2022/08/28 17:50:49;;;;;;;5.65;4.30;;;;;;;;;;10138937;29;20279;-89
2022/08/28 17:55:51;;;;;;;5.88;5.05;;;20.70;99.90;;;;;;10137727;29;20207;-90
2022/08/28 18:00:54;;;;;;;4.00;3.53;;;21.00;99.90;;;;;;10167708;29;20219;-89
2022/08/28 18:05:58;;;;;;;5.50;3.75;;;20.50;99.90;;;;;;10153297;29;20361;-91
2022/08/28 18:11:00;;;;;;;3.80;3.40;;;21.60;99.90;;;;;;10187112;29;20234;-90
2022/08/28 18:16:03;;;;;;;4.45;3.47;;;22.00;99.90;;;;;;10191811;29;20243;-92
2022/08/28 18:21:07;;;;;;;3.65;3.35;;;22.00;99.90;;;;;;10182421;29;20247;-92
2022/08/28 18:26:11;;;;;;;3.80;3.40;;;22.20;99.90;;;;;;10185465;29;20246;-90
2022/08/28 18:31:13;;;;;;;3.42;3.10;;;22.10;99.90;;;;;;10138234;29;20582;-91
2022/08/28 18:36:16;;;;;;;5.60;3.00;;;22.10;99.90;;;;;;10152693;29;20294;-91
2022/08/28 18:41:20;;;;;;;3.58;3.03;;;22.00;99.90;;;;;;10152798;29;20791;-92
2022/08/28 18:46:26;;;;;;;4.22;2.65;;;21.20;99.90;;;;;;10152202;29;20703;-93
2022/08/28 18:51:31;;;;;;;2.90;2.70;;;20.80;99.90;;;;;;10167508;29;20235;-92
2022/08/28 18:56:34;;;;;;;4.60;3.50;;;20.20;99.90;;;;;;10169613;29;20697;-91
2022/08/28 19:01:40;;;;;;;3.22;2.92;;;20.00;99.90;;;;;;10152233;29;20219;-92
2022/08/28 19:06:43;;;;;;;4.45;3.28;;;19.90;99.90;;;;;;10124307;29;20725;-92
2022/08/28 19:11:47;;;;;;;3.58;3.28;;;19.90;99.90;;;;;;10113623;29;20196;-92
2022/08/28 19:16:50;;;;;;;4.45;3.53;;;;;;;;;;10143934;29;20283;-92
2022/08/28 19:37:26;;;;;;;15.18;4.68;;;19.60;99.90;;;;;;10613243;27;20546;-85
2022/08/28 19:42:29;;;;;;;11.35;4.47;;;19.60;99.90;;;;;;10610776;27;20269;-84
2022/08/28 19:47:32;;;;;;;6.78;3.92;;;20.50;99.90;;;;;;10651411;27;20203;-84
2022/08/28 19:52:37;;;;;;;4.13;3.40;;;21.40;99.90;;;;;;10608074;28;20982;-84
2022/08/28 19:57:40;;;;;;;4.45;3.53;;;21.80;99.90;;;;;;10591209;27;20193;-84
2022/08/28 20:02:43;;;;;;;7.28;3.30;;;22.30;99.90;;;;;;10600019;27;20230;-84
2022/08/28 20:07:46;;;;;;;6.55;3.85;;;21.70;99.90;;;;;;10604885;28;20273;-87
2022/08/28 20:12:49;;;;;;;4.00;3.63;;;22.40;99.90;;;;;;10631522;27;20216;-85
2022/08/28 20:17:51;;;;;;;4.95;3.55;;;22.50;99.90;;;;;;10610465;27;20227;-87
2022/08/28 20:22:54;;;;;;;3.90;3.50;;;22.70;99.90;;;;;;10611046;28;20725;-84
2022/08/28 20:27:57;;;;;;;3.42;3.13;;;22.50;99.90;;;;;;10610763;27;20232;-84
2022/08/28 20:33:03;;;;;;;5.43;3.72;;;22.50;99.90;;;;;;10609676;28;20256;-86
2022/08/28 20:38:05;;;;;;;6.28;3.30;;;22.70;99.90;;;;;;10620237;27;20258;-86
2022/08/28 20:43:08;;;;;;;4.40;4.00;;;22.40;99.90;;;;;;10586311;28;20246;-86
2022/08/28 20:48:10;;;;;;;6.45;3.65;;;22.90;99.90;;;;;;10215073;27;10000299;-86
2022/08/28 20:53:13;;;;;;;3.88;3.58;;;22.70;99.90;;;;;;10578085;28;20294;-86
2022/08/28 20:58:30;;;;;;;3.58;3.28;;;22.50;99.90;;;;;;10569902;27;20269;-86
2022/08/28 21:03:33;;;;;;;5.78;3.55;;;22.40;99.90;;;;;;10577435;28;20653;-86
2022/08/28 21:08:35;;;;;;;5.22;3.85;;;22.60;99.90;;;;;;10575497;28;20301;-86
2022/08/28 21:13:37;;;;;;;3.92;3.63;;;22.70;99.90;;;;;;10577150;28;20244;-86
2022/08/28 21:18:41;;;;;;;7.85;4.30;;;23.10;99.90;;;;;;10571918;28;20240;-86
2022/08/28 21:24:06;;;;;;;3.30;3.00;;;22.60;99.90;;;;;;10577137;28;20309;-86
2022/08/28 21:29:09;;;;;;;4.40;4.00;;;23.10;99.90;;;;;;10575524;28;20236;-86
2022/08/28 21:34:12;;;;;;;3.83;3.53;;;23.30;99.90;;;;;;10558527;28;20323;-86
2022/08/28 21:39:15;;;;;;;3.97;3.35;;;23.30;99.90;;;;;;10592145;27;20679;-86
2022/08/28 21:44:18;;;;;;;3.75;3.45;;;23.10;99.90;;;;;;10618737;27;20232;-86
2022/08/28 21:49:21;;;;;;;8.90;4.95;;;22.90;99.90;;;;;;10596982;27;20288;-86
2022/08/28 21:54:24;;;;;;;4.30;3.47;;;22.90;99.90;;;;;;10598083;27;20244;-86
2022/08/28 21:59:26;;;;;;;9.18;4.18;;;23.00;99.90;;;;;;10573129;28;20254;-86
2022/08/28 22:04:39;;;;;;;4.25;3.88;;;22.60;99.90;;;;;;10568222;27;20262;-86
2022/08/28 22:09:42;;;;;;;3.67;3.38;;;22.70;99.90;;;;;;10594616;27;20228;-86
2022/08/28 22:14:44;;;;;;;4.80;3.47;;;23.00;99.90;;;;;;10571668;28;20252;-86
2022/08/28 22:19:47;;;;;;;6.18;4.45;;;23.20;99.90;;;;;;10573939;28;20232;-86
2022/08/28 22:24:50;;;;;;;5.45;4.88;;;22.70;99.90;;;;;;10573028;28;20712;-86
2022/08/28 22:29:52;;;;;;;4.55;4.15;;;22.70;99.90;;;;;;10574177;28;20685;-86
2022/08/28 22:34:55;;;;;;;3.80;3.50;;;22.30;99.90;;;;;;10572344;28;20264;-86
2022/08/28 22:39:58;;;;;;;4.63;4.28;;;22.40;99.90;;;;;;10615942;27;20228;-84
2022/08/28 22:45:00;;;;;;;3.35;3.05;;;22.40;99.90;;;;;;10616134;27;20273;-83
2022/08/28 22:50:04;;;;;;;3.97;3.60;;;22.80;99.90;;;;;;10578859;27;20244;-83
2022/08/28 22:55:09;;;;;;;4.47;4.00;;;22.90;99.90;;;;;;10571706;28;20260;-83
2022/08/28 23:00:18;;;;;;;3.88;3.58;;;22.60;99.90;;;;;;10569868;28;20228;-86
2022/08/28 23:05:22;;;;;;;4.25;3.85;;;22.90;99.90;;;;;;10576232;28;20236;-84
2022/08/28 23:10:25;;;;;;;4.32;3.67;;;22.90;99.90;;;;;;10576256;28;20237;-84
2022/08/28 23:15:48;;;;;;;11.45;3.80;;;23.10;99.90;;;;;;10571098;28;20252;-83
2022/08/28 23:20:51;;;;;;;3.55;3.25;;;22.60;99.90;;;;;;10574598;27;20285;-84
2022/08/28 23:25:53;;;;;;;3.30;3.00;;;22.90;99.90;;;;;;10575316;28;20565;-84
2022/08/28 23:30:56;;;;;;;3.47;3.17;;;23.20;99.90;;;;;;10558001;28;20200;-84
2022/08/28 23:35:58;;;;;;;6.38;4.00;;;23.40;99.90;;;;;;10576067;28;20709;-84
2022/08/28 23:41:01;;;;;;;4.00;3.55;;;23.30;99.90;;;;;;10586998;28;20245;-84
2022/08/28 23:46:04;;;;;;;4.43;3.70;;;23.30;99.90;;;;;;10574034;28;20230;-84
2022/08/28 23:51:09;;;;;;;4.18;3.75;;;23.30;99.90;;;;;;10575414;28;20205;-84
2022/08/28 23:56:12;;;;;;;3.60;3.30;;;23.40;99.90;;;;;;10574306;28;20244;-84
